createdAt,value
2022-08-03T00:02:17.588Z,101118.56
2022-08-03T00:04:45.660Z,101112.66
2022-08-03T00:07:15.027Z,101115.13
2022-08-03T00:09:43.012Z,101115.66
2022-08-03T00:12:11.211Z,101103.88
2022-08-03T00:14:39.036Z,101104.31
2022-08-03T00:17:06.876Z,101105.22
2022-08-03T00:19:34.801Z,101107.88
2022-08-03T00:22:02.705Z,101100.59
2022-08-03T00:24:32.322Z,101102.22
2022-08-03T00:27:00.232Z,101102.72
2022-08-03T00:29:28.920Z,101103.78
2022-08-03T00:32:00.097Z,101095.44
2022-08-03T00:34:36.736Z,101097.31
2022-08-03T00:37:16.828Z,101097.84
2022-08-03T00:39:48.075Z,101088.19
2022-08-03T00:42:16.379Z,101081.13
2022-08-03T00:44:45.971Z,101089.84
2022-08-03T00:47:13.902Z,101082.47
2022-08-03T00:49:42.272Z,101086.44
2022-08-03T00:52:10.893Z,101090.28
2022-08-03T00:54:39.155Z,101086.63
2022-08-03T00:57:08.654Z,101082.56
2022-08-03T00:59:38.177Z,101080.28
2022-08-03T01:02:06.508Z,101080.19
2022-08-03T01:04:34.353Z,101088.03
2022-08-03T01:07:10.879Z,101077.53
2022-08-03T01:09:43.499Z,101080.03
2022-08-03T01:12:20.152Z,101088.19
2022-08-03T01:14:53.326Z,101082.94
2022-08-03T01:17:25.409Z,101080.59
2022-08-03T01:19:58.753Z,101069.91
2022-08-03T01:22:47.457Z,101075.59
2022-08-03T01:25:24.997Z,101067.31
2022-08-03T01:27:59.364Z,101067.78
2022-08-03T01:30:29.984Z,101068.16
2022-08-03T01:33:02.176Z,101066.41
2022-08-03T01:35:38.320Z,101067.47
2022-08-03T01:38:11.851Z,101062.19
2022-08-03T01:40:41.662Z,101067.19
2022-08-03T01:43:11.098Z,101054.78
2022-08-03T01:45:40.872Z,101058.88
2022-08-03T01:48:09.040Z,101057.44
2022-08-03T01:50:37.051Z,101053.91
2022-08-03T01:53:05.463Z,101058.69
2022-08-03T01:55:34.303Z,101049.03
2022-08-03T01:58:05.655Z,101054.38
2022-08-03T02:00:35.080Z,101048.22
2022-08-03T02:03:06.146Z,101053.97
2022-08-03T02:05:34.601Z,101059.97
2022-08-03T02:08:03.078Z,101054.25
2022-08-03T02:10:35.467Z,101062.31
2022-08-03T02:13:06.442Z,101061.25
2022-08-03T02:15:35.306Z,101055.13
2022-08-03T02:18:07.461Z,101051.31
2022-08-03T02:20:36.419Z,101051.03
2022-08-03T02:23:04.610Z,101048.09
2022-08-03T02:25:33.628Z,101052.19
2022-08-03T02:28:08.217Z,101054.97
2022-08-03T02:30:39.067Z,101055.59
2022-08-03T02:33:12.053Z,101051.47
2022-08-03T02:35:41.241Z,101052.91
2022-08-03T02:38:11.509Z,101057.44
2022-08-03T02:40:40.258Z,101053.81
2022-08-03T02:43:10.402Z,101054.09
2022-08-03T02:45:45.543Z,101059.22
2022-08-03T02:48:17.595Z,101053.81
2022-08-03T02:50:46.052Z,101056.03
2022-08-03T02:53:14.154Z,101058.97
2022-08-03T02:55:45.818Z,101059.00
2022-08-03T02:58:14.829Z,101053.47
2022-08-03T03:00:45.460Z,101062.03
2022-08-03T03:03:15.605Z,101054.97
2022-08-03T03:05:56.009Z,101059.63
2022-08-03T03:08:27.468Z,101061.59
2022-08-03T03:10:57.022Z,101063.81
2022-08-03T03:13:25.155Z,101062.31
2022-08-03T03:15:54.622Z,101061.59
2022-08-03T03:18:24.254Z,101064.09
2022-08-03T03:20:53.007Z,101066.16
2022-08-03T03:23:21.839Z,101059.13
2022-08-03T03:25:49.737Z,101062.63
2022-08-03T03:28:17.846Z,101069.19
2022-08-03T03:30:52.733Z,101056.81
2022-08-03T03:33:21.620Z,101062.13
2022-08-03T03:35:51.669Z,101062.34
2022-08-03T03:38:19.769Z,101062.13
2022-08-03T03:40:47.720Z,101064.63
2022-08-03T03:43:15.581Z,101058.59
2022-08-03T03:45:43.535Z,101069.09
2022-08-03T03:48:11.833Z,101055.38
2022-08-03T03:50:41.040Z,101066.09
2022-08-03T03:53:13.034Z,101060.84
2022-08-03T03:56:01.576Z,101065.34
2022-08-03T03:58:29.647Z,101057.28
2022-08-03T04:00:57.544Z,101051.50
2022-08-03T04:03:25.524Z,101055.38
2022-08-03T04:09:22.282Z,101057.53
2022-08-03T04:12:08.580Z,101060.31
2022-08-03T04:14:37.127Z,101060.81
2022-08-03T04:17:07.034Z,101061.22
2022-08-03T04:19:37.848Z,101060.31
2022-08-03T04:22:07.861Z,101052.88
2022-08-03T04:24:41.189Z,101055.72
2022-08-03T04:27:11.418Z,101063.91
2022-08-03T04:29:48.257Z,101069.00
2022-08-03T04:32:17.679Z,101067.84
2022-08-03T04:34:45.915Z,101067.59
2022-08-03T04:37:24.258Z,101073.66
2022-08-03T04:39:54.975Z,101074.16
2022-08-03T04:42:25.792Z,101070.38
2022-08-03T04:44:58.952Z,101076.09
2022-08-03T04:47:29.007Z,101081.41
2022-08-03T04:49:57.002Z,101088.84
2022-08-03T04:52:24.871Z,101074.25
2022-08-03T04:54:54.169Z,101079.38
2022-08-03T04:57:22.846Z,101079.59
2022-08-03T04:59:59.603Z,101076.00
2022-08-03T05:02:30.912Z,101081.78
2022-08-03T05:04:59.196Z,101079.25
2022-08-03T05:07:36.357Z,101074.19
2022-08-03T05:10:14.986Z,101077.47
2022-08-03T05:12:45.406Z,101078.25
2022-08-03T05:15:13.677Z,101075.22
2022-08-03T05:17:41.655Z,101082.97
2022-08-03T05:20:11.077Z,101076.88
2022-08-03T05:22:38.964Z,101079.53
2022-08-03T05:25:08.905Z,101080.84
2022-08-03T05:27:36.710Z,101080.38
2022-08-03T05:34:18.036Z,101084.72
2022-08-03T05:36:48.724Z,101085.53
2022-08-03T05:39:16.572Z,101084.75
2022-08-03T05:41:45.799Z,101087.94
2022-08-03T05:44:13.718Z,101088.19
2022-08-03T05:46:41.534Z,101093.47
2022-08-03T05:49:09.453Z,101090.06
2022-08-03T05:51:37.276Z,101100.44
2022-08-03T05:54:05.323Z,101090.56
2022-08-03T05:56:33.150Z,101096.63
2022-08-03T05:59:22.474Z,101102.53
2022-08-03T06:01:51.691Z,101096.63
2022-08-03T06:04:19.836Z,101096.75
2022-08-03T06:06:48.308Z,101101.81
2022-08-03T06:09:16.317Z,101103.09
2022-08-03T06:11:44.384Z,101102.81
2022-08-03T06:14:15.275Z,101107.56
2022-08-03T06:16:43.222Z,101095.53
2022-08-03T06:19:11.088Z,101098.28
2022-08-03T06:21:39.853Z,101097.72
2022-08-03T06:24:08.470Z,101096.91
2022-08-03T06:26:36.894Z,101093.13
2022-08-03T06:29:04.833Z,101090.41
2022-08-03T06:31:37.820Z,101097.28
2022-08-03T06:34:33.267Z,101086.66
2022-08-03T06:36:58.638Z,101093.19
2022-08-03T06:39:29.958Z,101090.63
2022-08-03T06:41:58.033Z,101105.28
2022-08-03T06:44:26.192Z,101093.94
2022-08-03T06:46:55.782Z,101098.63
2022-08-03T06:49:23.913Z,101096.03
2022-08-03T06:52:06.262Z,101092.94
2022-08-03T06:54:37.716Z,101093.97
2022-08-03T06:57:08.062Z,101092.66
2022-08-03T07:00:07.338Z,101087.66
2022-08-03T07:02:25.014Z,101094.13
2022-08-03T07:04:56.097Z,101088.63
2022-08-03T07:07:24.047Z,101093.09
2022-08-03T07:09:56.823Z,101096.53
2022-08-03T07:12:27.278Z,101093.47
2022-08-03T07:14:59.746Z,101090.47
2022-08-03T07:17:30.923Z,101092.84
2022-08-03T07:19:58.868Z,101098.78
2022-08-03T07:22:26.788Z,101093.81
2022-08-03T07:24:54.778Z,101101.38
2022-08-03T07:27:22.576Z,101090.00
2022-08-03T07:29:50.375Z,101093.22
2022-08-03T07:32:18.605Z,101091.00
2022-08-03T07:34:47.981Z,101089.66
2022-08-03T07:37:15.814Z,101090.47
2022-08-03T07:39:43.733Z,101091.78
2022-08-03T07:42:11.631Z,101092.84
2022-08-03T07:44:39.848Z,101095.31
2022-08-03T07:47:07.660Z,101097.91
2022-08-03T07:49:41.138Z,101094.78
2022-08-03T07:52:28.313Z,101093.34
2022-08-03T07:54:56.583Z,101103.25
2022-08-03T07:57:24.533Z,101102.72
2022-08-03T08:00:01.435Z,101098.25
2022-08-03T08:02:39.857Z,101090.75
2022-08-03T08:05:08.551Z,101092.81
2022-08-03T08:07:37.781Z,101099.41
2022-08-03T08:10:06.680Z,101093.59
2022-08-03T08:12:34.486Z,101095.34
2022-08-03T08:15:02.312Z,101097.72
2022-08-03T08:17:30.115Z,101098.78
2022-08-03T08:19:57.952Z,101094.66
2022-08-03T08:22:30.628Z,101103.69
2022-08-03T08:25:01.516Z,101102.44
2022-08-03T08:28:31.517Z,101109.09
2022-08-03T08:30:19.577Z,101095.91
2022-08-03T08:32:47.796Z,101104.44
2022-08-03T08:35:15.658Z,101104.81
2022-08-03T08:37:44.283Z,101096.34
2022-08-03T08:40:22.082Z,101095.22
2022-08-03T08:42:59.086Z,101090.06
2022-08-03T08:45:27.508Z,101092.34
2022-08-03T08:48:00.810Z,101094.19
2022-08-03T08:50:29.849Z,101092.19
2022-08-03T08:53:02.102Z,101088.22
2022-08-03T08:55:58.314Z,101092.66
2022-08-03T08:58:21.044Z,101089.66
2022-08-03T09:00:49.368Z,101091.28
2022-08-03T09:03:22.391Z,101101.88
2022-08-03T09:05:57.708Z,101085.06
2022-08-03T09:08:25.613Z,101084.28
2022-08-03T09:10:54.849Z,101092.19
2022-08-03T09:13:22.809Z,101082.59
2022-08-03T09:16:00.722Z,101085.06
2022-08-03T09:18:32.950Z,101080.69
2022-08-03T09:21:34.265Z,101075.38
2022-08-03T09:24:05.127Z,101070.81
2022-08-03T09:26:37.059Z,101064.31
2022-08-03T09:29:13.532Z,101065.31
2022-08-03T09:31:44.658Z,101074.09
2022-08-03T09:34:13.872Z,101065.97
2022-08-03T09:36:43.987Z,101068.44
2022-08-03T09:39:13.565Z,101065.47
2022-08-03T09:41:44.205Z,101067.94
2022-08-03T09:44:24.412Z,101072.06
2022-08-03T09:46:54.837Z,101075.72
2022-08-03T09:49:22.963Z,101065.41
2022-08-03T09:52:32.867Z,101057.50
2022-08-03T09:54:39.517Z,101069.56
2022-08-03T09:57:08.989Z,101070.75
2022-08-03T09:59:39.158Z,101070.50
2022-08-03T10:02:22.034Z,101066.50
2022-08-03T10:04:52.477Z,101055.25
2022-08-03T10:07:21.068Z,101048.69
2022-08-03T10:09:57.134Z,101048.34
2022-08-03T10:12:26.843Z,101043.91
2022-08-03T10:14:55.770Z,101041.50
2022-08-03T10:17:24.246Z,101043.94
2022-08-03T10:19:52.081Z,101048.38
2022-08-03T10:22:22.420Z,101040.94
2022-08-03T10:24:54.796Z,101036.84
2022-08-03T10:27:24.372Z,101026.69
2022-08-03T10:29:57.098Z,101034.63
2022-08-03T10:32:29.764Z,101036.50
2022-08-03T10:35:20.371Z,101038.53
2022-08-03T10:37:56.947Z,101032.56
2022-08-03T10:43:22.866Z,101034.28
2022-08-03T10:45:52.525Z,101029.81
2022-08-03T10:48:20.930Z,101024.06
2022-08-03T10:50:50.238Z,101023.66
2022-08-03T10:53:20.001Z,101023.84
2022-08-03T10:56:11.205Z,101020.03
2022-08-03T10:58:57.006Z,101019.78
2022-08-03T11:02:00.802Z,101015.38
2022-08-03T11:04:30.946Z,101010.97
2022-08-03T11:07:22.400Z,101010.94
2022-08-03T11:09:53.560Z,101007.94
2022-08-03T11:12:27.839Z,101003.25
2022-08-03T11:15:00.486Z,100993.50
2022-08-03T11:17:28.570Z,101007.28
2022-08-03T11:19:58.639Z,100998.88
2022-08-03T11:22:29.118Z,100998.13
2022-08-03T11:25:00.698Z,100994.47
2022-08-03T11:27:30.312Z,100996.84
2022-08-03T11:30:00.986Z,100991.47
2022-08-03T11:32:59.737Z,100997.50
2022-08-03T11:35:30.564Z,100993.38
2022-08-03T11:38:09.900Z,101000.31
2022-08-03T11:40:42.311Z,100989.09
2022-08-03T11:43:11.397Z,100989.47
2022-08-03T11:45:39.482Z,100993.50
2022-08-03T11:48:17.886Z,100993.00
2022-08-03T11:50:47.000Z,100988.94
2022-08-03T11:53:19.895Z,100989.72
2022-08-03T11:55:49.814Z,100996.16
2022-08-03T11:59:16.528Z,100990.16
2022-08-03T12:01:08.758Z,100981.31
2022-08-03T12:03:37.171Z,100987.13
2022-08-03T12:06:12.274Z,100978.91
2022-08-03T12:08:40.857Z,100979.50
2022-08-03T12:11:10.603Z,100982.06
2022-08-03T12:14:10.661Z,100974.69
2022-08-03T12:16:29.613Z,100970.97
2022-08-03T12:18:58.643Z,100982.34
2022-08-03T12:21:27.977Z,100964.41
2022-08-03T12:23:58.990Z,100966.06
2022-08-03T12:26:27.315Z,100962.38
2022-08-03T12:28:55.223Z,100957.53
2022-08-03T12:31:23.418Z,100961.50
2022-08-03T12:34:02.756Z,100951.38
2022-08-03T12:36:33.966Z,100946.03
2022-08-03T12:39:03.171Z,100943.66
2022-08-03T12:41:34.037Z,100943.97
2022-08-03T12:44:03.401Z,100952.28
2022-08-03T12:46:34.143Z,100945.22
2022-08-03T12:49:07.704Z,100942.13
2022-08-03T12:51:38.924Z,100940.09
2022-08-03T12:54:06.936Z,100931.19
2022-08-03T12:56:35.845Z,100927.09
2022-08-03T12:59:34.759Z,100934.16
2022-08-03T13:02:15.656Z,100930.16
2022-08-03T13:04:43.651Z,100936.94
2022-08-03T13:07:14.315Z,100931.16
2022-08-03T13:09:46.845Z,100937.34
2022-08-03T13:12:16.244Z,100935.00
2022-08-03T13:14:45.144Z,100935.94
2022-08-03T13:17:13.449Z,100931.28
2022-08-03T13:19:41.736Z,100926.00
2022-08-03T13:22:15.246Z,100927.69
2022-08-03T13:24:44.056Z,100936.56
2022-08-03T13:28:01.465Z,100930.53
2022-08-03T13:30:00.755Z,100924.94
2022-08-03T13:32:28.773Z,100922.38
2022-08-03T13:34:56.649Z,100925.28
2022-08-03T13:37:26.284Z,100925.72
2022-08-03T13:39:59.482Z,100911.50
2022-08-03T13:42:30.275Z,100917.06
2022-08-03T13:44:58.614Z,100907.22
2022-08-03T13:47:26.693Z,100905.47
2022-08-03T13:50:01.279Z,100901.09
2022-08-03T13:52:36.048Z,100888.69
2022-08-03T13:55:05.257Z,100904.69
2022-08-03T13:58:03.455Z,100908.13
2022-08-03T14:00:26.984Z,100903.88
2022-08-03T14:03:04.034Z,100892.44
2022-08-03T14:05:33.480Z,100898.94
2022-08-03T14:08:05.346Z,100897.50
2022-08-03T14:10:34.718Z,100891.06
2022-08-03T14:13:02.590Z,100897.81
2022-08-03T14:15:30.604Z,100883.13
2022-08-03T14:17:58.981Z,100883.78
2022-08-03T14:20:37.912Z,100879.38
2022-08-03T14:23:15.650Z,100887.66
2022-08-03T14:25:52.441Z,100891.50
2022-08-03T14:28:23.424Z,100879.94
2022-08-03T14:30:51.977Z,100876.84
2022-08-03T14:33:20.041Z,100868.41
2022-08-03T14:35:47.900Z,100877.25
2022-08-03T14:38:17.403Z,100864.97
2022-08-03T14:40:45.394Z,100868.47
2022-08-03T14:43:13.290Z,100870.09
2022-08-03T14:45:41.300Z,100866.28
2022-08-03T14:50:30.251Z,100862.84
2022-08-03T14:50:57.162Z,100862.22
2022-08-03T14:53:26.353Z,100865.38
2022-08-03T14:55:54.178Z,100868.94
2022-08-03T14:58:22.691Z,100869.22
2022-08-03T15:00:51.810Z,100846.50
2022-08-03T15:03:23.133Z,100833.25
2022-08-03T15:05:51.931Z,100851.72
2022-08-03T15:08:19.930Z,100838.22
2022-08-03T15:10:49.602Z,100852.78
2022-08-03T15:13:18.005Z,100851.41
2022-08-03T15:15:46.061Z,100851.44
2022-08-03T15:18:13.999Z,100848.34
2022-08-03T15:20:45.547Z,100842.81
2022-08-03T15:23:23.450Z,100844.59
2022-08-03T15:26:28.329Z,100846.06
2022-08-03T15:28:40.552Z,100839.25
2022-08-03T15:31:08.443Z,100835.31
2022-08-03T15:33:36.404Z,100838.53
2022-08-03T15:36:07.627Z,100829.94
2022-08-03T15:38:35.507Z,100843.88
2022-08-03T15:41:08.749Z,100838.03
2022-08-03T15:43:42.052Z,100825.84
2022-08-03T15:46:31.006Z,100838.09
2022-08-03T15:48:59.145Z,100838.84
2022-08-03T15:51:27.012Z,100833.53
2022-08-03T15:53:55.962Z,100831.75
2022-08-03T15:56:25.268Z,100837.47
2022-08-03T15:59:09.609Z,100838.25
2022-08-03T16:01:41.105Z,100820.09
2022-08-03T16:04:09.403Z,100831.44
2022-08-03T16:06:37.202Z,100831.38
2022-08-03T16:09:23.899Z,100828.38
2022-08-03T16:11:56.593Z,100829.16
2022-08-03T16:14:34.678Z,100822.13
2022-08-03T16:17:06.077Z,100830.56
2022-08-03T16:19:33.952Z,100833.25
2022-08-03T16:22:03.543Z,100822.56
2022-08-03T16:24:31.931Z,100819.50
2022-08-03T16:27:01.166Z,100819.53
2022-08-03T16:29:29.665Z,100821.94
2022-08-03T16:31:57.630Z,100816.47
2022-08-03T16:34:25.607Z,100816.84
2022-08-03T16:36:54.625Z,100815.88
2022-08-03T16:39:22.642Z,100811.47
2022-08-03T16:41:54.378Z,100818.06
2022-08-03T16:44:31.500Z,100816.69
2022-08-03T16:46:59.826Z,100814.31
2022-08-03T16:49:54.657Z,100814.69
2022-08-03T16:52:16.752Z,100817.16
2022-08-03T16:54:50.548Z,100814.97
2022-08-03T16:57:55.911Z,100815.56
2022-08-03T17:00:11.785Z,100822.50
2022-08-03T17:02:48.033Z,100815.59
2022-08-03T17:05:16.317Z,100820.28
2022-08-03T17:07:46.957Z,100817.75
2022-08-03T17:10:22.055Z,100819.06
2022-08-03T17:12:55.258Z,100818.81
2022-08-03T17:15:38.366Z,100830.47
2022-08-03T17:18:17.795Z,100821.78
2022-08-03T17:20:47.973Z,100821.81
2022-08-03T17:23:35.462Z,100824.25
2022-08-03T17:26:18.761Z,100825.31
2022-08-03T17:28:57.478Z,100825.97
2022-08-03T17:31:30.789Z,100825.41
2022-08-03T17:34:01.873Z,100836.38
2022-08-03T17:36:54.096Z,100826.44
2022-08-03T17:39:30.770Z,100830.56
2022-08-03T17:42:05.377Z,100829.25
2022-08-03T17:44:54.006Z,100835.03
2022-08-03T17:47:29.295Z,100839.00
2022-08-03T17:50:24.067Z,100842.69
2022-08-03T17:53:07.236Z,100844.50
2022-08-03T17:55:57.326Z,100838.56
2022-08-03T17:58:37.942Z,100837.25
2022-08-03T18:02:00.411Z,100848.91
2022-08-03T18:04:21.138Z,100839.13
2022-08-03T18:06:59.424Z,100837.91
2022-08-03T18:10:06.399Z,100841.56
2022-08-03T18:12:22.689Z,100844.34
2022-08-03T18:14:57.174Z,100844.03
2022-08-03T18:18:01.881Z,100850.75
2022-08-03T18:20:31.164Z,100846.06
2022-08-03T18:23:04.907Z,100848.47
2022-08-03T18:25:44.873Z,100850.19
2022-08-03T18:28:15.404Z,100845.81
2022-08-03T18:30:54.387Z,100848.28
2022-08-03T18:34:16.858Z,100841.97
2022-08-03T18:36:17.832Z,100846.22
2022-08-03T18:38:53.888Z,100850.72
2022-08-03T18:41:32.148Z,100852.50
2022-08-03T18:44:07.879Z,100851.50
2022-08-03T18:46:47.269Z,100853.63
2022-08-03T18:49:24.859Z,100851.53
2022-08-03T18:52:04.805Z,100853.66
2022-08-03T18:55:01.182Z,100854.84
2022-08-03T18:57:39.710Z,100859.19
2022-08-03T19:00:14.019Z,100847.34
2022-08-03T19:02:49.033Z,100852.47
2022-08-03T19:05:19.591Z,100855.53
2022-08-03T19:08:00.171Z,100862.00
2022-08-03T19:10:32.408Z,100865.63
2022-08-03T19:13:05.459Z,100864.16
2022-08-03T19:15:50.979Z,100856.81
2022-08-03T19:18:19.346Z,100860.97
2022-08-03T19:20:51.128Z,100865.50
2022-08-03T19:23:24.963Z,100865.72
2022-08-03T19:25:52.753Z,100878.78
2022-08-03T19:28:21.416Z,100873.66
2022-08-03T19:31:06.539Z,100867.53
2022-08-03T19:33:56.176Z,100872.50
2022-08-03T19:36:27.529Z,100862.47
2022-08-03T19:38:57.534Z,100871.19
2022-08-03T19:41:26.333Z,100867.22
2022-08-03T19:44:00.266Z,100869.41
2022-08-03T19:46:32.204Z,100870.56
2022-08-03T19:49:01.170Z,100870.56
2022-08-03T19:52:01.247Z,100867.50
2022-08-03T19:54:25.290Z,100872.06
2022-08-03T19:56:57.303Z,100864.88
2022-08-03T19:59:26.484Z,100863.56
2022-08-03T20:01:54.961Z,100867.13
2022-08-03T20:04:22.581Z,100865.75
2022-08-03T20:06:52.209Z,100863.66
2022-08-03T20:09:21.196Z,100863.28
2022-08-03T20:11:48.838Z,100861.78
2022-08-03T20:14:20.902Z,100854.13
2022-08-03T20:16:54.371Z,100862.31
2022-08-03T20:19:21.991Z,100865.16
2022-08-03T20:21:51.332Z,100857.97
2022-08-03T20:24:24.564Z,100854.28
2022-08-03T20:26:54.907Z,100862.66
2022-08-03T20:29:42.600Z,100858.81
2022-08-03T20:32:14.335Z,100862.16
2022-08-03T20:34:42.045Z,100858.38
2022-08-03T20:37:09.661Z,100857.22
2022-08-03T20:39:39.858Z,100856.03
2022-08-03T20:45:13.934Z,100864.06
2022-08-03T20:47:50.834Z,100862.47
2022-08-03T20:50:21.834Z,100857.47
2022-08-03T20:52:50.034Z,100863.56
2022-08-03T20:55:18.891Z,100870.00
2022-08-03T20:58:07.844Z,100856.94
2022-08-03T21:00:35.665Z,100867.13
2022-08-03T21:03:03.847Z,100868.31
2022-08-03T21:05:48.397Z,100869.25
2022-08-03T21:08:19.088Z,100866.22
2022-08-03T21:10:46.701Z,100863.66
2022-08-03T21:13:07.251Z,100863.16
2022-08-03T21:16:11.322Z,100863.31
2022-08-03T21:18:42.229Z,100872.75
2022-08-03T21:21:10.364Z,100870.00
2022-08-03T21:23:45.435Z,100870.41
2022-08-03T21:26:17.223Z,100877.00
2022-08-03T21:28:46.224Z,100869.66
2022-08-03T21:31:14.159Z,100872.47
2022-08-03T21:33:47.508Z,100870.59
2022-08-03T21:36:15.491Z,100865.88
2022-08-03T21:38:43.778Z,100864.69
2022-08-03T21:41:15.118Z,100865.31
2022-08-03T21:43:42.741Z,100865.75
2022-08-03T21:46:12.950Z,100865.00
2022-08-03T21:48:41.435Z,100874.28
2022-08-03T21:51:10.430Z,100871.00
2022-08-03T21:54:02.205Z,100866.78
2022-08-03T21:56:25.896Z,100871.25
2022-08-03T21:58:55.464Z,100875.06
2022-08-03T22:01:25.376Z,100875.53
2022-08-03T22:03:54.301Z,100867.53
2022-08-03T22:06:22.138Z,100875.50
2022-08-03T22:08:50.640Z,100877.97
2022-08-03T22:11:18.243Z,100872.09
2022-08-03T22:13:46.690Z,100876.41
2022-08-03T22:16:14.419Z,100873.00
2022-08-03T22:18:44.777Z,100876.34
2022-08-03T22:21:13.759Z,100883.84
2022-08-03T22:23:41.915Z,100884.22
2022-08-03T22:26:10.503Z,100881.00
2022-08-03T22:28:38.158Z,100883.28
2022-08-03T22:31:30.678Z,100888.41
2022-08-03T22:33:55.059Z,100877.50
2022-08-03T22:36:24.153Z,100884.00
2022-08-03T22:38:51.859Z,100882.97
2022-08-03T22:41:19.652Z,100883.13
2022-08-03T22:43:47.229Z,100883.97
2022-08-03T22:46:18.564Z,100896.88
2022-08-03T22:48:46.448Z,100884.06
2022-08-03T22:51:15.442Z,100886.03
2022-08-03T22:53:43.067Z,100883.19
2022-08-03T22:56:10.686Z,100881.44
2022-08-03T22:58:38.327Z,100884.38
2022-08-03T23:01:07.227Z,100884.81
2022-08-03T23:04:00.985Z,100889.63
2022-08-03T23:06:25.644Z,100896.00
2022-08-03T23:08:53.458Z,100891.00
2022-08-03T23:11:21.065Z,100890.31
2022-08-03T23:13:48.836Z,100892.94
2022-08-03T23:16:16.454Z,100889.69
2022-08-03T23:18:57.142Z,100884.66
2022-08-03T23:22:00.685Z,100891.78
2022-08-03T23:24:24.623Z,100895.88
2022-08-03T23:26:58.088Z,100883.22
2022-08-03T23:29:25.701Z,100891.91
2022-08-03T23:31:53.343Z,100888.81
2022-08-03T23:34:38.579Z,100887.97
2022-08-03T23:37:07.587Z,100886.63
2022-08-03T23:39:35.509Z,100885.34
2022-08-03T23:42:05.728Z,100885.69
2022-08-03T23:44:33.426Z,100881.28
2022-08-03T23:47:01.193Z,100884.06
2022-08-03T23:49:28.849Z,100881.97
2022-08-03T23:51:58.519Z,100883.81
2022-08-03T23:54:30.025Z,100883.66
2022-08-03T23:57:02.012Z,100884.88
2022-08-03T23:59:41.975Z,100880.75
